地図

経路データ

SID SEASON NUMBER BASIN SUBBASIN NAME ISO_TIME NATURE LAT LON WMO_WIND WMO_PRES WMO_AGENCY TRACK_TYPE DIST2LAND LANDFALL IFLAG USA_AGENCY USA_ATCF_ID USA_LAT USA_LON USA_RECORD USA_STATUS USA_WIND USA_PRES USA_SSHS USA_R34_NE USA_R34_SE USA_R34_SW USA_R34_NW USA_R50_NE USA_R50_SE USA_R50_SW USA_R50_NW USA_R64_NE USA_R64_SE USA_R64_SW USA_R64_NW USA_POCI USA_ROCI USA_RMW USA_EYE TOKYO_LAT TOKYO_LON TOKYO_GRADE TOKYO_WIND TOKYO_PRES TOKYO_R50_DIR TOKYO_R50_LONG TOKYO_R50_SHORT TOKYO_R30_DIR TOKYO_R30_LONG TOKYO_R30_SHORT TOKYO_LAND CMA_LAT CMA_LON CMA_CAT CMA_WIND CMA_PRES HKO_LAT HKO_LON HKO_CAT HKO_WIND HKO_PRES NEWDELHI_LAT NEWDELHI_LON NEWDELHI_GRADE NEWDELHI_WIND NEWDELHI_PRES NEWDELHI_CI NEWDELHI_DP NEWDELHI_POCI REUNION_LAT REUNION_LON REUNION_TYPE REUNION_WIND REUNION_PRES REUNION_TNUM REUNION_CI REUNION_RMW REUNION_R34_NE REUNION_R34_SE REUNION_R34_SW REUNION_R34_NW REUNION_R50_NE REUNION_R50_SE REUNION_R50_SW REUNION_R50_NW REUNION_R64_NE REUNION_R64_SE REUNION_R64_SW REUNION_R64_NW BOM_LAT BOM_LON BOM_TYPE BOM_WIND BOM_PRES BOM_TNUM BOM_CI BOM_RMW BOM_R34_NE BOM_R34_SE BOM_R34_SW BOM_R34_NW BOM_R50_NE BOM_R50_SE BOM_R50_SW BOM_R50_NW BOM_R64_NE BOM_R64_SE BOM_R64_SW BOM_R64_NW BOM_ROCI BOM_POCI BOM_EYE BOM_POS_METHOD BOM_PRES_METHOD NADI_LAT NADI_LON NADI_CAT NADI_WIND NADI_PRES WELLINGTON_LAT WELLINGTON_LON WELLINGTON_WIND WELLINGTON_PRES DS824_LAT DS824_LON DS824_STAGE DS824_WIND DS824_PRES TD9636_LAT TD9636_LON TD9636_STAGE TD9636_WIND TD9636_PRES TD9635_LAT TD9635_LON TD9635_WIND TD9635_PRES TD9635_ROCI NEUMANN_LAT NEUMANN_LON NEUMANN_CLASS NEUMANN_WIND NEUMANN_PRES MLC_LAT MLC_LON MLC_CLASS MLC_WIND MLC_PRES USA_GUST BOM_GUST BOM_GUST_PER REUNION_GUST REUNION_GUST_PER USA_SEAHGT USA_SEARAD_NE USA_SEARAD_SE USA_SEARAD_SW USA_SEARAD_NW STORM_SPEED STORM_DIR
1930241N13317 1930 43 NA NA NOT_NAMED 1930-08-29 00:00:00 TS 12.8000 -43.5000 30 hurdat_atl main 1281 1238 O_____________ hurdat_atl AL021930 12.8000 -43.5000 TD 30 -1 13 274
1930241N13317 1930 43 NA NA NOT_NAMED 1930-08-29 03:00:00 TS 12.8504 -44.1624 main 1239 1199 P_____________ AL021930 12.8504 -44.1624 TD 30 -1 13 275
1930241N13317 1930 43 NA NA NOT_NAMED 1930-08-29 06:00:00 TS 12.9000 -44.8000 30 hurdat_atl main 1199 1161 O_____________ hurdat_atl AL021930 12.9000 -44.8000 TD 30 -1 12 275
1930241N13317 1930 43 NA NA NOT_NAMED 1930-08-29 09:00:00 TS 12.9498 -45.4000 main 1161 1135 P_____________ AL021930 12.9498 -45.4000 TD 30 -1 12 275
1930241N13317 1930 43 NA NA NOT_NAMED 1930-08-29 12:00:00 TS 13.0000 -46.0000 30 hurdat_atl main 1135 1094 O_____________ hurdat_atl AL021930 13.0000 -46.0000 TD 30 -1 12 274
1930241N13317 1930 43 NA NA NOT_NAMED 1930-08-29 15:00:00 TS 13.0274 -46.6502 main 1087 1059 P_____________ AL021930 13.0274 -46.6502 TD 30 -1 13 275
1930241N13317 1930 43 NA NA NOT_NAMED 1930-08-29 18:00:00 TS 13.1000 -47.3000 30 hurdat_atl main 1059 1043 O_____________ hurdat_atl AL021930 13.1000 -47.3000 TD 30 -1 13 283
1930241N13317 1930 43 NA NA NOT_NAMED 1930-08-29 21:00:00 TS 13.3073 -47.8997 main 1043 1032 P_____________ AL021930 13.3073 -47.8997 TD 30 -1 12 289
1930241N13317 1930 43 NA NA NOT_NAMED 1930-08-30 00:00:00 TS 13.5000 -48.5000 30 hurdat_atl main 1032 1004 O_____________ hurdat_atl AL021930 13.5000 -48.5000 TD 30 -1 12 280
1930241N13317 1930 43 NA NA NOT_NAMED 1930-08-30 03:00:00 TS 13.5224 -49.1503 main 999 975 P_____________ AL021930 13.5224 -49.1503 TD 32 -1 13 270
1930241N13317 1930 43 NA NA NOT_NAMED 1930-08-30 06:00:00 TS 13.5000 -49.8000 35 hurdat_atl main 975 947 O_____________ hurdat_atl AL021930 13.5000 -49.8000 TS 35 0 12 271
1930241N13317 1930 43 NA NA NOT_NAMED 1930-08-30 09:00:00 TS 13.5423 -50.4075 main 947 931 P_____________ AL021930 13.5423 -50.4075 TS 37 0 12 275
1930241N13317 1930 43 NA NA NOT_NAMED 1930-08-30 12:00:00 TS 13.6000 -51.0000 40 hurdat_atl main 931 908 O_____________ hurdat_atl AL021930 13.6000 -51.0000 TS 40 0 12 275
1930241N13317 1930 43 NA NA NOT_NAMED 1930-08-30 15:00:00 TS 13.6499 -51.6000 main 908 900 P_____________ AL021930 13.6499 -51.6000 TS 42 0 12 275
1930241N13317 1930 43 NA NA NOT_NAMED 1930-08-30 18:00:00 TS 13.7000 -52.2000 45 hurdat_atl main 900 887 O_____________ hurdat_atl AL021930 13.7000 -52.2000 TS 45 0 12 275
1930241N13317 1930 43 NA NA NOT_NAMED 1930-08-30 21:00:00 TS 13.7424 -52.8001 main 887 885 P_____________ AL021930 13.7424 -52.8001 TS 47 0 12 275
1930241N13317 1930 43 NA NA NOT_NAMED 1930-08-31 00:00:00 TS 13.8000 -53.4000 50 hurdat_atl main 889 841 O_____________ hurdat_atl AL021930 13.8000 -53.4000 TS 50 0 12 277
1930241N13317 1930 43 NA NA NOT_NAMED 1930-08-31 03:00:00 TS 13.8924 -54.0000 main 841 787 P_____________ AL021930 13.8924 -54.0000 TS 55 0 12 280
1930241N13317 1930 43 NA NA NOT_NAMED 1930-08-31 06:00:00 TS 14.0000 -54.6000 60 hurdat_atl main 787 736 O_____________ hurdat_atl AL021930 14.0000 -54.6000 TS 60 0 12 280
1930241N13317 1930 43 NA NA NOT_NAMED 1930-08-31 09:00:00 TS 14.0998 -55.1926 main 736 687 P_____________ AL021930 14.0998 -55.1926 TS 62 0 12 280
1930241N13317 1930 43 NA NA NOT_NAMED 1930-08-31 12:00:00 TS 14.2000 -55.8000 65 hurdat_atl main 687 641 O_____________ hurdat_atl AL021930 14.2000 -55.8000 HU 65 1 12 279
1930241N13317 1930 43 NA NA NOT_NAMED 1930-08-31 15:00:00 TS 14.2999 -56.4426 main 641 592 P_____________ AL021930 14.2999 -56.4426 HU 65 1 13 279
1930241N13317 1930 43 NA NA NOT_NAMED 1930-08-31 18:00:00 TS 14.4000 -57.1000 65 hurdat_atl main 592 556 O_____________ hurdat_atl AL021930 14.4000 -57.1000 HU 65 1 13 279
1930241N13317 1930 43 NA NA NOT_NAMED 1930-08-31 21:00:00 TS 14.4924 -57.7576 main 549 519 P_____________ AL021930 14.4924 -57.7576 HU 67 1 13 279
1930241N13317 1930 43 NA NA NOT_NAMED 1930-09-01 00:00:00 TS 14.6000 -58.4000 70 hurdat_atl main 519 497 O_____________ hurdat_atl AL021930 14.6000 -58.4000 HU 70 1 12 282
1930241N13317 1930 43 NA NA NOT_NAMED 1930-09-01 03:00:00 TS 14.7423 -59.0075 main 497 490 P_____________ AL021930 14.7423 -59.0075 HU 72 1 12 285
1930241N13317 1930 43 NA NA NOT_NAMED 1930-09-01 06:00:00 TS 14.9000 -59.6000 75 hurdat_atl main 494 487 O_____________ hurdat_atl AL021930 14.9000 -59.6000 HU 75 1 12 285
1930241N13317 1930 43 NA CS NOT_NAMED 1930-09-01 09:00:00 TS 15.0423 -60.2001 main 489 489 P_____________ AL021930 15.0423 -60.2001 HU 77 1 12 285
1930241N13317 1930 43 NA CS NOT_NAMED 1930-09-01 12:00:00 TS 15.2000 -60.8000 80 hurdat_atl main 504 503 O_____________ hurdat_atl AL021930 15.2000 -60.8000 HU 80 1 12 286
1930241N13317 1930 43 NA CS NOT_NAMED 1930-09-01 15:00:00 TS 15.3773 -61.4002 main 526 481 P_____________ AL021930 15.3773 -61.4002 HU 82 1 12 289
1930241N13317 1930 43 NA CS NOT_NAMED 1930-09-01 18:00:00 TS 15.6000 -62.0000 85 hurdat_atl main 481 409 O_____________ hurdat_atl AL021930 15.6000 -62.0000 HU 85 2 13 294
1930241N13317 1930 43 NA CS NOT_NAMED 1930-09-01 21:00:00 TS 15.8999 -62.6074 main 409 339 P_____________ AL021930 15.8999 -62.6074 HU 87 2 13 297
1930241N13317 1930 43 NA CS NOT_NAMED 1930-09-02 00:00:00 TS 16.2000 -63.2000 90 hurdat_atl main 339 285 O_____________ hurdat_atl AL021930 16.2000 -63.2000 HU 90 2 12 295
1930241N13317 1930 43 NA CS NOT_NAMED 1930-09-02 03:00:00 TS 16.4149 -63.7652 main 277 223 P_____________ AL021930 16.4149 -63.7652 HU 92 2 11 291
1930241N13317 1930 43 NA CS NOT_NAMED 1930-09-02 06:00:00 TS 16.6000 -64.3000 95 hurdat_atl main 223 171 O_____________ hurdat_atl AL021930 16.6000 -64.3000 HU 95 2 11 291
1930241N13317 1930 43 NA CS NOT_NAMED 1930-09-02 09:00:00 TS 16.8073 -64.8076 main 171 123 P_____________ AL021930 16.8073 -64.8076 HU 97 3 10 293
1930241N13317 1930 43 NA CS NOT_NAMED 1930-09-02 12:00:00 TS 17.0000 -65.3000 100 hurdat_atl main 123 99 O_____________ hurdat_atl AL021930 17.0000 -65.3000 HU 100 3 10 290
1930241N13317 1930 43 NA CS NOT_NAMED 1930-09-02 15:00:00 TS 17.1574 -65.8001 main 89 67 P_____________ AL021930 17.1574 -65.8001 HU 100 3 10 287
1930241N13317 1930 43 NA CS NOT_NAMED 1930-09-02 18:00:00 TS 17.3000 -66.3000 100 hurdat_atl main 67 56 O_____________ hurdat_atl AL021930 17.3000 -66.3000 HU 100 3 10 287
1930241N13317 1930 43 NA CS NOT_NAMED 1930-09-02 21:00:00 TS 17.4499 -66.8001 main 56 33 P_____________ AL021930 17.4499 -66.8001 HU 100 3 10 287
1930241N13317 1930 43 NA CS NOT_NAMED 1930-09-03 00:00:00 TS 17.6000 -67.3000 100 hurdat_atl main 35 35 O_____________ hurdat_atl AL021930 17.6000 -67.3000 HU 100 3 10 287
1930241N13317 1930 43 NA CS NOT_NAMED 1930-09-03 03:00:00 TS 17.7499 -67.8076 main 67 46 P_____________ AL021930 17.7499 -67.8076 HU 105 3 10 287
1930241N13317 1930 43 NA CS NOT_NAMED 1930-09-03 06:00:00 TS 17.9000 -68.3000 110 hurdat_atl main 46 22 O_____________ hurdat_atl AL021930 17.9000 -68.3000 HU 110 3 10 289
1930241N13317 1930 43 NA CS NOT_NAMED 1930-09-03 09:00:00 TS 18.0574 -68.7650 main 11 11 P_____________ AL021930 18.0574 -68.7650 HU 115 4 9 289
1930241N13317 1930 43 NA CS NOT_NAMED 1930-09-03 12:00:00 TS 18.2000 -69.2000 120 hurdat_atl main 30 11 O_____________ hurdat_atl AL021930 18.2000 -69.2000 HU 120 4 8 288
1930241N13317 1930 43 NA CS NOT_NAMED 1930-09-03 15:00:00 TS 18.3073 -69.5926 main 11 0 P_____________ AL021930 18.3073 -69.5926 HU 127 4 8 285
1930241N13317 1930 43 NA CS NOT_NAMED 1930-09-03 18:00:00 TS 18.4000 -70.0000 135 933 hurdat_atl main 0 0 O_____________ hurdat_atl AL021930 18.4000 -70.0000 HU 135 933 4 9 283
1930241N13317 1930 43 NA NA NOT_NAMED 1930-09-03 21:00:00 TS 18.4999 -70.4701 main 0 0 P_____________ AL021930 18.4999 -70.4701 HU 107 3 10 282
1930241N13317 1930 43 NA NA NOT_NAMED 1930-09-04 00:00:00 TS 18.6000 -71.0000 80 hurdat_atl main 0 0 O_____________ hurdat_atl AL021930 18.6000 -71.0000 HU 80 1 11 281
1930241N13317 1930 43 NA NA NOT_NAMED 1930-09-04 03:00:00 TS 18.6999 -71.5776 main 0 0 P_____________ AL021930 18.6999 -71.5776 HU 70 1 12 280
1930241N13317 1930 43 NA NA NOT_NAMED 1930-09-04 06:00:00 TS 18.8000 -72.2000 60 hurdat_atl main 0 0 O_____________ hurdat_atl AL021930 18.8000 -72.2000 TS 60 0 12 280
1930241N13317 1930 43 NA CS NOT_NAMED 1930-09-04 09:00:00 TS 18.8998 -72.8351 main 11 11 P_____________ AL021930 18.8998 -72.8351 TS 57 0 12 279
1930241N13317 1930 43 NA CS NOT_NAMED 1930-09-04 12:00:00 TS 19.0000 -73.5000 55 hurdat_atl main 59 49 O_____________ hurdat_atl AL021930 19.0000 -73.5000 TS 55 0 13 279
1930241N13317 1930 43 NA CS NOT_NAMED 1930-09-04 15:00:00 TS 19.0998 -74.1926 main 55 55 P_____________ AL021930 19.0998 -74.1926 TS 52 0 13 279
1930241N13317 1930 43 NA CS NOT_NAMED 1930-09-04 18:00:00 TS 19.2000 -74.9000 50 hurdat_atl main 78 67 O_____________ hurdat_atl AL021930 19.2000 -74.9000 TS 50 0 13 278
1930241N13317 1930 43 NA CS NOT_NAMED 1930-09-04 21:00:00 TS 19.2922 -75.6002 main 67 67 P_____________ AL021930 19.2922 -75.6002 TS 47 0 13 279
1930241N13317 1930 43 NA CS NOT_NAMED 1930-09-05 00:00:00 TS 19.4000 -76.3000 45 hurdat_atl main 67 44 O_____________ hurdat_atl AL021930 19.4000 -76.3000 TS 45 0 14 281
1930241N13317 1930 43 NA CS NOT_NAMED 1930-09-05 03:00:00 TS 19.5423 -77.0075 main 44 11 P_____________ AL021930 19.5423 -77.0075 TS 45 0 14 283
1930241N13317 1930 43 NA CS NOT_NAMED 1930-09-05 06:00:00 TS 19.7000 -77.7000 45 hurdat_atl main 11 11 O_____________ hurdat_atl AL021930 19.7000 -77.7000 TS 45 0 13 284
1930241N13317 1930 43 NA CS NOT_NAMED 1930-09-05 09:00:00 TS 19.8497 -78.3576 main 73 73 P_____________ AL021930 19.8497 -78.3576 TS 42 0 13 284
1930241N13317 1930 43 NA CS NOT_NAMED 1930-09-05 12:00:00 TS 20.0000 -79.0000 40 hurdat_atl main 123 123 O_____________ hurdat_atl AL021930 20.0000 -79.0000 TS 40 0 13 284
1930241N13317 1930 43 NA CS NOT_NAMED 1930-09-05 15:00:00 TS 20.1423 -79.6502 main 160 153 P_____________ AL021930 20.1423 -79.6502 TS 40 0 13 284
1930241N13317 1930 43 NA CS NOT_NAMED 1930-09-05 18:00:00 TS 20.3000 -80.3000 40 hurdat_atl main 159 154 O_____________ hurdat_atl AL021930 20.3000 -80.3000 TS 40 0 13 285
1930241N13317 1930 43 NA CS NOT_NAMED 1930-09-05 21:00:00 TS 20.4773 -80.9577 main 169 137 P_____________ AL021930 20.4773 -80.9577 TS 37 0 13 288
1930241N13317 1930 43 NA CS NOT_NAMED 1930-09-06 00:00:00 TS 20.7000 -81.6000 35 hurdat_atl main 137 73 O_____________ hurdat_atl AL021930 20.7000 -81.6000 TS 35 0 13 293
1930241N13317 1930 43 NA CS NOT_NAMED 1930-09-06 03:00:00 TS 20.9774 -82.2226 main 73 11 P_____________ AL021930 20.9774 -82.2226 TS 35 0 13 298
1930241N13317 1930 43 NA CS NOT_NAMED 1930-09-06 06:00:00 TS 21.3000 -82.8000 35 hurdat_atl main 11 10 O_____________ hurdat_atl AL021930 21.3000 -82.8000 TS 35 0 12 302
1930241N13317 1930 43 NA CS NOT_NAMED 1930-09-06 09:00:00 TS 21.6424 -83.3450 main 30 20 P_____________ AL021930 21.6424 -83.3450 TS 35 0 12 307
1930241N13317 1930 43 NA CS NOT_NAMED 1930-09-06 12:00:00 TS 22.0000 -83.8000 35 hurdat_atl main 20 0 O_____________ hurdat_atl AL021930 22.0000 -83.8000 TS 35 0 10 313
1930241N13317 1930 43 NA NA NOT_NAMED 1930-09-06 15:00:00 TS 22.3498 -84.1527 main 0 0 P_____________ AL021930 22.3498 -84.1527 TS 35 0 9 322
1930241N13317 1930 43 NA GM NOT_NAMED 1930-09-06 18:00:00 TS 22.7000 -84.4000 35 hurdat_atl main 30 30 O_____________ hurdat_atl AL021930 22.7000 -84.4000 TS 35 0 8 330
1930241N13317 1930 43 NA GM NOT_NAMED 1930-09-06 21:00:00 TS 23.0499 -84.5876 main 68 68 P_____________ AL021930 23.0499 -84.5876 TS 35 0 8 338
1930241N13317 1930 43 NA GM NOT_NAMED 1930-09-07 00:00:00 TS 23.4000 -84.7000 35 hurdat_atl main 106 106 O_____________ hurdat_atl AL021930 23.4000 -84.7000 TS 35 0 7 347
1930241N13317 1930 43 NA GM NOT_NAMED 1930-09-07 03:00:00 TS 23.7575 -84.7651 main 147 147 P_____________ AL021930 23.7575 -84.7651 TS 35 0 7 353
1930241N13317 1930 43 NA GM NOT_NAMED 1930-09-07 06:00:00 TS 24.1000 -84.8000 35 hurdat_atl main 176 176 O_____________ hurdat_atl AL021930 24.1000 -84.8000 TS 35 0 7 352
1930241N13317 1930 43 NA GM NOT_NAMED 1930-09-07 09:00:00 TS 24.4225 -84.8649 main 210 210 P_____________ AL021930 24.4225 -84.8649 TS 35 0 6 352
1930241N13317 1930 43 NA GM NOT_NAMED 1930-09-07 12:00:00 TS 24.7000 -84.9000 35 hurdat_atl main 241 241 O_____________ hurdat_atl AL021930 24.7000 -84.9000 TS 35 0 5 358
1930241N13317 1930 43 NA GM NOT_NAMED 1930-09-07 15:00:00 TS 24.9225 -84.8651 main 262 262 P_____________ AL021930 24.9225 -84.8651 TS 35 0 4 12
1930241N13317 1930 43 NA GM NOT_NAMED 1930-09-07 18:00:00 TS 25.1000 -84.8000 35 hurdat_atl main 280 280 O_____________ hurdat_atl AL021930 25.1000 -84.8000 TS 35 0 4 18
1930241N13317 1930 43 NA GM NOT_NAMED 1930-09-07 21:00:00 TS 25.2575 -84.7500 main 292 285 P_____________ AL021930 25.2575 -84.7500 TS 35 0 3 16
1930241N13317 1930 43 NA GM NOT_NAMED 1930-09-08 00:00:00 TS 25.4000 -84.7000 35 hurdat_atl main 285 279 O_____________ hurdat_atl AL021930 25.4000 -84.7000 TS 35 0 3 17
1930241N13317 1930 43 NA GM NOT_NAMED 1930-09-08 03:00:00 TS 25.5500 -84.6500 main 265 260 P_____________ AL021930 25.5500 -84.6500 TS 35 0 3 16
1930241N13317 1930 43 NA GM NOT_NAMED 1930-09-08 06:00:00 TS 25.7000 -84.6000 35 hurdat_atl main 260 254 O_____________ hurdat_atl AL021930 25.7000 -84.6000 TS 35 0 3 16
1930241N13317 1930 43 NA GM NOT_NAMED 1930-09-08 09:00:00 TS 25.8425 -84.5649 main 254 236 P_____________ AL021930 25.8425 -84.5649 TS 35 0 3 16
1930241N13317 1930 43 NA GM NOT_NAMED 1930-09-08 12:00:00 TS 26.0000 -84.5000 35 hurdat_atl main 236 216 O_____________ hurdat_atl AL021930 26.0000 -84.5000 TS 35 0 4 25
1930241N13317 1930 43 NA GM NOT_NAMED 1930-09-08 15:00:00 TS 26.1925 -84.3800 main 216 187 P_____________ AL021930 26.1925 -84.3800 TS 35 0 5 34
1930241N13317 1930 43 NA GM NOT_NAMED 1930-09-08 18:00:00 TS 26.4000 -84.2000 35 hurdat_atl main 187 159 O_____________ hurdat_atl AL021930 26.4000 -84.2000 TS 35 0 5 42
1930241N13317 1930 43 NA GM NOT_NAMED 1930-09-08 21:00:00 TS 26.5924 -83.9798 main 159 122 P_____________ AL021930 26.5924 -83.9798 TS 37 0 6 48
1930241N13317 1930 43 NA GM NOT_NAMED 1930-09-09 00:00:00 TS 26.8000 -83.7000 40 hurdat_atl main 122 85 O_____________ hurdat_atl AL021930 26.8000 -83.7000 TS 40 0 7 51
1930241N13317 1930 43 NA GM NOT_NAMED 1930-09-09 03:00:00 TS 27.0535 -83.3535 main 82 39 P_____________ AL021930 27.0535 -83.3535 TS 40 0 8 51
1930241N13317 1930 43 NA GM NOT_NAMED 1930-09-09 06:00:00 TS 27.3000 -83.0000 40 hurdat_atl main 39 9 O_____________ hurdat_atl AL021930 27.3000 -83.0000 TS 40 0 7 52
1930241N13317 1930 43 NA GM NOT_NAMED 1930-09-09 09:00:00 TS 27.5000 -82.7000 40 hurdat_atl main 9 0 O_____________ hurdat_atl AL021930 27.5000 -82.7000 L TS 40 0 7 47
1930241N13317 1930 43 NA GM NOT_NAMED 1930-09-09 12:00:00 TS 27.8000 -82.4000 35 hurdat_atl main 0 0 O_____________ hurdat_atl AL021930 27.8000 -82.4000 TS 35 0 7 39
1930241N13317 1930 43 NA NA NOT_NAMED 1930-09-09 15:00:00 TS 28.0601 -82.1793 main 0 0 P_____________ AL021930 28.0601 -82.1793 TS 32 -1 6 35
1930241N13317 1930 43 NA NA NOT_NAMED 1930-09-09 18:00:00 TS 28.3000 -82.0000 30 hurdat_atl main 0 0 O_____________ hurdat_atl AL021930 28.3000 -82.0000 TD 30 -1 6 34
1930241N13317 1930 43 NA NA NOT_NAMED 1930-09-09 21:00:00 TS 28.5575 -81.7999 main 0 0 P_____________ AL021930 28.5575 -81.7999 TD 30 -1 6 35
1930241N13317 1930 43 NA NA NOT_NAMED 1930-09-10 00:00:00 TS 28.8000 -81.6000 30 hurdat_atl main 0 0 O_____________ hurdat_atl AL021930 28.8000 -81.6000 TD 30 -1 6 37
1930241N13317 1930 43 NA NA NOT_NAMED 1930-09-10 03:00:00 TS 29.0150 -81.3999 main 0 0 P_____________ AL021930 29.0150 -81.3999 TD 30 -1 5 41
1930241N13317 1930 43 NA NA NOT_NAMED 1930-09-10 06:00:00 TS 29.2000 -81.2000 30 hurdat_atl main 0 0 O_____________ hurdat_atl AL021930 29.2000 -81.2000 TD 30 -1 5 45
1930241N13317 1930 43 NA NA NOT_NAMED 1930-09-10 09:00:00 TS 29.3650 -80.9999 main 9 9 P_____________ AL021930 29.3650 -80.9999 TD 32 -1 5 49
1930241N13317 1930 43 NA NA NOT_NAMED 1930-09-10 12:00:00 TS 29.5000 -80.8000 35 hurdat_atl main 31 31 O_____________ hurdat_atl AL021930 29.5000 -80.8000 TS 35 0 4 56
1930241N13317 1930 43 NA NA NOT_NAMED 1930-09-10 15:00:00 TS 29.6075 -80.5924 main 53 53 P_____________ AL021930 29.6075 -80.5924 TS 37 0 4 60
1930241N13317 1930 43 NA NA NOT_NAMED 1930-09-10 18:00:00 TS 29.7000 -80.4000 40 hurdat_atl main 75 75 O_____________ hurdat_atl AL021930 29.7000 -80.4000 TS 40 0 4 58
1930241N13317 1930 43 NA NA NOT_NAMED 1930-09-10 21:00:00 TS 29.8000 -80.2424 main 97 97 P_____________ AL021930 29.8000 -80.2424 TS 40 0 3 53
1930241N13317 1930 43 NA NA NOT_NAMED 1930-09-11 00:00:00 TS 29.9000 -80.1000 40 hurdat_atl main 111 111 O_____________ hurdat_atl AL021930 29.9000 -80.1000 TS 40 0 3 52
1930241N13317 1930 43 NA NA NOT_NAMED 1930-09-11 03:00:00 TS 30.0000 -79.9500 main 132 132 P_____________ AL021930 30.0000 -79.9500 TS 42 0 3 53
1930241N13317 1930 43 NA NA NOT_NAMED 1930-09-11 06:00:00 TS 30.1000 -79.8000 45 hurdat_atl main 145 145 O_____________ hurdat_atl AL021930 30.1000 -79.8000 TS 45 0 3 54
1930241N13317 1930 43 NA NA NOT_NAMED 1930-09-11 09:00:00 TS 30.1850 -79.6574 main 159 159 P_____________ AL021930 30.1850 -79.6574 TS 45 0 3 53
1930241N13317 1930 43 NA NA NOT_NAMED 1930-09-11 12:00:00 TS 30.3000 -79.5000 45 hurdat_atl main 181 181 O_____________ hurdat_atl AL021930 30.3000 -79.5000 TS 45 0 4 46
1930241N13317 1930 43 NA NA NOT_NAMED 1930-09-11 15:00:00 TS 30.4700 -79.3149 main 201 201 P_____________ AL021930 30.4700 -79.3149 TS 47 0 5 41
1930241N13317 1930 43 NA NA NOT_NAMED 1930-09-11 18:00:00 TS 30.7000 -79.1000 50 hurdat_atl main 216 206 O_____________ hurdat_atl AL021930 30.7000 -79.1000 TS 50 0 6 38
1930241N13317 1930 43 NA NA NOT_NAMED 1930-09-11 21:00:00 TS 30.9699 -78.8648 main 206 195 P_____________ AL021930 30.9699 -78.8648 TS 55 0 7 36
1930241N13317 1930 43 NA NA NOT_NAMED 1930-09-12 00:00:00 TS 31.3000 -78.6000 60 hurdat_atl main 195 177 O_____________ hurdat_atl AL021930 31.3000 -78.6000 TS 60 0 8 33
1930241N13317 1930 43 NA NA NOT_NAMED 1930-09-12 03:00:00 TS 31.6774 -78.3222 main 177 165 P_____________ AL021930 31.6774 -78.3222 TS 65 1 10 33
1930241N13317 1930 43 NA NA NOT_NAMED 1930-09-12 06:00:00 TS 32.1000 -78.0000 70 hurdat_atl main 165 157 O_____________ hurdat_atl AL021930 32.1000 -78.0000 HU 70 1 10 35
1930241N13317 1930 43 NA NA NOT_NAMED 1930-09-12 09:00:00 TS 32.5349 -77.6222 main 160 124 P_____________ AL021930 32.5349 -77.6222 HU 75 1 11 37
1930241N13317 1930 43 NA NA NOT_NAMED 1930-09-12 12:00:00 TS 33.0000 -77.2000 80 hurdat_atl main 124 114 O_____________ hurdat_atl AL021930 33.0000 -77.2000 HU 80 1 12 37
1930241N13317 1930 43 NA NA NOT_NAMED 1930-09-12 15:00:00 TS 33.4847 -76.7718 main 119 80 P_____________ AL021930 33.4847 -76.7718 HU 80 1 13 37
1930241N13317 1930 43 NA NA NOT_NAMED 1930-09-12 18:00:00 TS 34.0000 -76.3000 80 hurdat_atl main 80 56 O_____________ hurdat_atl AL021930 34.0000 -76.3000 HU 80 1 13 38
1930241N13317 1930 43 NA NA NOT_NAMED 1930-09-12 21:00:00 TS 34.5346 -75.7865 main 63 56 P_____________ AL021930 34.5346 -75.7865 HU 80 1 14 39
1930241N13317 1930 43 NA NA NOT_NAMED 1930-09-13 00:00:00 TS 35.1000 -75.2000 80 hurdat_atl main 71 70 O_____________ hurdat_atl AL021930 35.1000 -75.2000 HU 80 1 16 41
1930241N13317 1930 43 NA NA NOT_NAMED 1930-09-13 03:00:00 TS 35.7144 -74.5521 main 81 81 P_____________ AL021930 35.7144 -74.5521 HU 80 1 17 43
1930241N13317 1930 43 NA NA NOT_NAMED 1930-09-13 06:00:00 TS 36.3000 -73.8000 80 hurdat_atl main 162 162 O_____________ hurdat_atl AL021930 36.3000 -73.8000 HU 80 1 17 50
1930241N13317 1930 43 NA NA NOT_NAMED 1930-09-13 09:00:00 TS 36.8171 -72.9453 main 254 254 P_____________ AL021930 36.8171 -72.9453 HU 80 1 17 58
1930241N13317 1930 43 NA NA NOT_NAMED 1930-09-13 12:00:00 TS 37.2000 -72.0000 80 hurdat_atl main 298 298 O_____________ hurdat_atl AL021930 37.2000 -72.0000 HU 80 1 16 69
1930241N13317 1930 43 NA NA NOT_NAMED 1930-09-13 15:00:00 TS 37.4168 -71.0214 main 369 369 P_____________ AL021930 37.4168 -71.0214 HU 80 1 16 79
1930241N13317 1930 43 NA NA NOT_NAMED 1930-09-13 18:00:00 TS 37.5000 -70.0000 80 hurdat_atl main 429 429 O_____________ hurdat_atl AL021930 37.5000 -70.0000 HU 80 1 16 86
1930241N13317 1930 43 NA NA NOT_NAMED 1930-09-13 21:00:00 TS 37.5440 -68.9650 main 468 468 P_____________ AL021930 37.5440 -68.9650 HU 82 1 17 90
1930241N13317 1930 43 NA NA NOT_NAMED 1930-09-14 00:00:00 TS 37.5000 -67.9000 85 hurdat_atl main 500 500 O_____________ hurdat_atl AL021930 37.5000 -67.9000 HU 85 2 17 96
1930241N13317 1930 43 NA NA NOT_NAMED 1930-09-14 03:00:00 TS 37.3792 -66.8072 main 551 551 P_____________ AL021930 37.3792 -66.8072 HU 85 2 18 100
1930241N13317 1930 43 NA NA NOT_NAMED 1930-09-14 06:00:00 TS 37.2000 -65.7000 85 hurdat_atl main 621 621 O_____________ hurdat_atl AL021930 37.2000 -65.7000 HU 85 2 18 103
1930241N13317 1930 43 NA NA NOT_NAMED 1930-09-14 09:00:00 TS 36.9838 -64.6068 main 698 698 P_____________ AL021930 36.9838 -64.6068 HU 85 2 18 103
1930241N13317 1930 43 NA NA NOT_NAMED 1930-09-14 12:00:00 TS 36.8000 -63.5000 85 hurdat_atl main 761 761 O_____________ hurdat_atl AL021930 36.8000 -63.5000 HU 85 2 18 99
1930241N13317 1930 43 NA NA NOT_NAMED 1930-09-14 15:00:00 TS 36.7041 -62.3576 main 795 795 P_____________ AL021930 36.7041 -62.3576 HU 85 2 18 93
1930241N13317 1930 43 NA NA NOT_NAMED 1930-09-14 18:00:00 TS 36.7000 -61.2000 85 hurdat_atl main 832 832 O_____________ hurdat_atl AL021930 36.7000 -61.2000 HU 85 2 18 88
1930241N13317 1930 43 NA NA NOT_NAMED 1930-09-14 21:00:00 TS 36.7537 -60.0571 main 865 865 P_____________ AL021930 36.7537 -60.0571 HU 82 1 18 84
1930241N13317 1930 43 NA NA NOT_NAMED 1930-09-15 00:00:00 TS 36.9000 -58.9000 80 hurdat_atl main 912 912 O_____________ hurdat_atl AL021930 36.9000 -58.9000 HU 80 1 19 79
1930241N13317 1930 43 NA NA NOT_NAMED 1930-09-15 03:00:00 TS 37.1188 -57.7148 main 944 939 P_____________ AL021930 37.1188 -57.7148 HU 80 1 20 75
1930241N13317 1930 43 NA NA NOT_NAMED 1930-09-15 06:00:00 TS 37.4000 -56.5000 80 hurdat_atl main 948 944 O_____________ hurdat_atl AL021930 37.4000 -56.5000 HU 80 1 21 73
1930241N13317 1930 43 NA NA NOT_NAMED 1930-09-15 09:00:00 TS 37.7221 -55.2362 main 966 957 P_____________ AL021930 37.7221 -55.2362 HU 77 1 21 73
1930241N13317 1930 43 NA NA NOT_NAMED 1930-09-15 12:00:00 TS 38.0000 -54.0000 75 hurdat_atl main 957 934 O_____________ hurdat_atl AL021930 38.0000 -54.0000 HU 75 1 19 77
1930241N13317 1930 43 NA NA NOT_NAMED 1930-09-15 15:00:00 TS 38.1656 -52.8849 main 934 934 P_____________ AL021930 38.1656 -52.8849 HU 72 1 17 83
1930241N13317 1930 43 NA NA NOT_NAMED 1930-09-15 18:00:00 TS 38.2000 -51.8000 70 hurdat_atl main 941 941 O_____________ hurdat_atl AL021930 38.2000 -51.8000 HU 70 1 18 92
1930241N13317 1930 43 NA NA NOT_NAMED 1930-09-15 21:00:00 TS 38.0943 -50.6490 main 968 968 P_____________ AL021930 38.0943 -50.6490 HU 65 1 18 99
1930241N13317 1930 43 NA NA NOT_NAMED 1930-09-16 00:00:00 TS 37.9000 -49.5000 60 hurdat_atl main 1013 1013 O_____________ hurdat_atl AL021930 37.9000 -49.5000 TS 60 0 18 102
1930241N13317 1930 43 NA NA NOT_NAMED 1930-09-16 03:00:00 TS 37.7138 -48.3931 main 1065 1065 P_____________ AL021930 37.7138 -48.3931 TS 55 0 18 103
1930241N13317 1930 43 NA NA NOT_NAMED 1930-09-16 06:00:00 TS 37.5000 -47.3000 50 hurdat_atl main 1121 1121 O_____________ hurdat_atl AL021930 37.5000 -47.3000 TS 50 0 18 105
1930241N13317 1930 43 NA NA NOT_NAMED 1930-09-16 09:00:00 TS 37.2415 -46.1997 main 1193 1193 P_____________ AL021930 37.2415 -46.1997 TS 47 0 18 106
1930241N13317 1930 43 NA NA NOT_NAMED 1930-09-16 12:00:00 TS 37.0000 -45.1000 45 hurdat_atl main 1258 1258 O_____________ hurdat_atl AL021930 37.0000 -45.1000 TS 45 0 18 103
1930241N13317 1930 43 NA NA NOT_NAMED 1930-09-16 15:00:00 TS 36.8265 -44.0008 main 1327 1327 P_____________ AL021930 36.8265 -44.0008 TS 42 0 18 100
1930241N13317 1930 43 NA NA NOT_NAMED 1930-09-16 18:00:00 TS 36.7000 -42.9000 40 hurdat_atl main 1390 1390 O_____________ hurdat_atl AL021930 36.7000 -42.9000 TS 40 0 18 98
1930241N13317 1930 43 NA NA NOT_NAMED 1930-09-16 21:00:00 TS 36.5838 -41.8078 main 1456 1456 P_____________ AL021930 36.5838 -41.8078 TS 37 0 18 96
1930241N13317 1930 43 NA NA NOT_NAMED 1930-09-17 00:00:00 TS 36.5000 -40.7000 35 hurdat_atl main 1525 1525 O_____________ hurdat_atl AL021930 36.5000 -40.7000 TS 35 0 18 95
1930241N13317 1930 43 NA NA NOT_NAMED 1930-09-17 03:00:00 TS 36.4414 -39.5654 main 1596 1596 P_____________ AL021930 36.4414 -39.5654 TS 32 -1 18 93
1930241N13317 1930 43 NA NA NOT_NAMED 1930-09-17 06:00:00 TS 36.4000 -38.4000 30 hurdat_atl main 1667 1667 O_____________ hurdat_atl AL021930 36.4000 -38.4000 TD 30 -1 19 93
1930241N13317 1930 43 NA NA NOT_NAMED 1930-09-17 09:00:00 TS 36.3488 -37.2151 main 1748 1748 P_____________ AL021930 36.3488 -37.2151 TD 30 -1 19 93
1930241N13317 1930 43 NA NA NOT_NAMED 1930-09-17 12:00:00 TS 36.3000 -36.0000 30 hurdat_atl main 1824 1824 O_____________ hurdat_atl AL021930 36.3000 -36.0000 TD 30 -1 20 93
1930241N13317 1930 43 NA NA NOT_NAMED 1930-09-17 15:00:00 TS 36.2527 -34.7572 main 1900 1802 P_____________ AL021930 36.2527 -34.7572 TD 30 -1 20 93
1930241N13317 1930 43 NA NA NOT_NAMED 1930-09-17 18:00:00 TS 36.2000 -33.5000 30 hurdat_atl main 1794 O_____________ hurdat_atl AL021930 36.2000 -33.5000 TD 30 -1 20 93

IBTrACS Databaseについて

本データベースは、米国NOAAが公開する1842年以降の世界の熱帯低気圧のベストトラックデータアーカイブInternational Best Track Archive for Climate Stewardship (IBTrACS)を、ウェブで閲覧しやすい形式に変換したものです。

最終更新日:2021-11-26